sensor_id;sensor_type;location;lat;lon;timestamp;P1;durP1;ratioP1;P2;durP2;ratioP2
24567;SDS011;12731;52.182;8.716;2022-09-12T00:01:26;22.80;;;17.33;;
24567;SDS011;12731;52.182;8.716;2022-09-12T00:03:54;22.45;;;18.17;;
24567;SDS011;12731;52.182;8.716;2022-09-12T00:06:22;21.67;;;17.95;;
24567;SDS011;12731;52.182;8.716;2022-09-12T00:08:53;24.15;;;19.63;;
24567;SDS011;12731;52.182;8.716;2022-09-12T00:11:20;23.08;;;19.00;;
24567;SDS011;12731;52.182;8.716;2022-09-12T00:13:47;24.55;;;19.42;;
24567;SDS011;12731;52.182;8.716;2022-09-12T00:16:15;24.50;;;19.77;;
24567;SDS011;12731;52.182;8.716;2022-09-12T00:18:45;24.40;;;20.08;;
24567;SDS011;12731;52.182;8.716;2022-09-12T00:21:12;25.50;;;19.77;;
24567;SDS011;12731;52.182;8.716;2022-09-12T00:23:39;27.13;;;20.50;;
24567;SDS011;12731;52.182;8.716;2022-09-12T00:26:06;24.33;;;19.45;;
24567;SDS011;12731;52.182;8.716;2022-09-12T00:28:33;27.63;;;19.60;;
24567;SDS011;12731;52.182;8.716;2022-09-12T00:31:03;26.85;;;20.33;;
24567;SDS011;12731;52.182;8.716;2022-09-12T00:33:30;25.17;;;20.25;;
24567;SDS011;12731;52.182;8.716;2022-09-12T00:35:57;27.27;;;20.40;;
24567;SDS011;12731;52.182;8.716;2022-09-12T00:38:23;28.13;;;21.27;;
24567;SDS011;12731;52.182;8.716;2022-09-12T00:40:50;24.77;;;19.80;;
24567;SDS011;12731;52.182;8.716;2022-09-12T00:45:58;30.17;;;21.38;;
24567;SDS011;12731;52.182;8.716;2022-09-12T00:48:32;29.13;;;21.90;;
24567;SDS011;12731;52.182;8.716;2022-09-12T00:51:00;31.92;;;22.77;;
24567;SDS011;12731;52.182;8.716;2022-09-12T00:53:27;30.63;;;22.50;;
24567;SDS011;12731;52.182;8.716;2022-09-12T00:55:53;27.27;;;21.27;;
24567;SDS011;12731;52.182;8.716;2022-09-12T00:58:22;28.25;;;22.23;;
24567;SDS011;12731;52.182;8.716;2022-09-12T01:00:50;32.22;;;22.20;;
24567;SDS011;12731;52.182;8.716;2022-09-12T01:03:19;26.80;;;20.77;;
24567;SDS011;12731;52.182;8.716;2022-09-12T01:05:50;26.85;;;20.15;;
24567;SDS011;12731;52.182;8.716;2022-09-12T01:08:27;25.67;;;20.20;;
24567;SDS011;12731;52.182;8.716;2022-09-12T01:10:54;28.20;;;20.95;;
24567;SDS011;12731;52.182;8.716;2022-09-12T01:13:21;26.17;;;20.77;;
24567;SDS011;12731;52.182;8.716;2022-09-12T01:15:48;27.75;;;21.80;;
24567;SDS011;12731;52.182;8.716;2022-09-12T01:20:56;25.85;;;19.98;;
24567;SDS011;12731;52.182;8.716;2022-09-12T01:31:56;26.65;;;20.08;;
24567;SDS011;12731;52.182;8.716;2022-09-12T01:34:35;24.75;;;20.25;;
24567;SDS011;12731;52.182;8.716;2022-09-12T01:37:11;26.48;;;20.02;;
24567;SDS011;12731;52.182;8.716;2022-09-12T01:39:49;25.33;;;20.25;;
24567;SDS011;12731;52.182;8.716;2022-09-12T01:42:28;26.23;;;20.65;;
24567;SDS011;12731;52.182;8.716;2022-09-12T01:45:12;26.52;;;20.42;;
24567;SDS011;12731;52.182;8.716;2022-09-12T01:47:51;22.58;;;19.55;;
24567;SDS011;12731;52.182;8.716;2022-09-12T01:50:24;25.40;;;19.90;;
24567;SDS011;12731;52.182;8.716;2022-09-12T01:55:33;23.48;;;19.40;;
24567;SDS011;12731;52.182;8.716;2022-09-12T01:58:07;24.33;;;19.80;;
24567;SDS011;12731;52.182;8.716;2022-09-12T02:01:00;26.77;;;20.25;;
24567;SDS011;12731;52.182;8.716;2022-09-12T02:03:31;25.50;;;19.40;;
24567;SDS011;12731;52.182;8.716;2022-09-12T02:06:01;22.50;;;18.40;;
24567;SDS011;12731;52.182;8.716;2022-09-12T02:08:53;25.80;;;20.13;;
24567;SDS011;12731;52.182;8.716;2022-09-12T02:11:20;27.33;;;20.17;;
24567;SDS011;12731;52.182;8.716;2022-09-12T02:13:48;23.45;;;19.90;;
24567;SDS011;12731;52.182;8.716;2022-09-12T02:16:30;25.92;;;19.23;;
24567;SDS011;12731;52.182;8.716;2022-09-12T02:19:19;22.40;;;18.65;;
24567;SDS011;12731;52.182;8.716;2022-09-12T02:21:55;24.55;;;18.80;;
24567;SDS011;12731;52.182;8.716;2022-09-12T02:24:25;23.08;;;19.23;;
24567;SDS011;12731;52.182;8.716;2022-09-12T02:26:56;24.67;;;19.55;;
24567;SDS011;12731;52.182;8.716;2022-09-12T02:29:40;23.58;;;19.38;;
24567;SDS011;12731;52.182;8.716;2022-09-12T02:32:26;24.25;;;19.00;;
24567;SDS011;12731;52.182;8.716;2022-09-12T02:35:00;21.17;;;17.60;;
24567;SDS011;12731;52.182;8.716;2022-09-12T02:40:27;21.02;;;17.15;;
24567;SDS011;12731;52.182;8.716;2022-09-12T02:42:54;23.55;;;18.60;;
24567;SDS011;12731;52.182;8.716;2022-09-12T02:45:21;21.15;;;17.58;;
24567;SDS011;12731;52.182;8.716;2022-09-12T02:47:52;21.58;;;17.73;;
24567;SDS011;12731;52.182;8.716;2022-09-12T02:50:22;20.27;;;17.17;;
24567;SDS011;12731;52.182;8.716;2022-09-12T02:52:49;21.45;;;17.27;;
24567;SDS011;12731;52.182;8.716;2022-09-12T02:55:16;23.63;;;17.75;;
24567;SDS011;12731;52.182;8.716;2022-09-12T02:57:42;21.67;;;17.58;;
24567;SDS011;12731;52.182;8.716;2022-09-12T03:00:09;21.67;;;18.23;;
24567;SDS011;12731;52.182;8.716;2022-09-12T03:02:44;21.50;;;18.23;;
24567;SDS011;12731;52.182;8.716;2022-09-12T03:05:34;23.98;;;19.35;;
24567;SDS011;12731;52.182;8.716;2022-09-12T03:16:40;23.77;;;18.92;;
24567;SDS011;12731;52.182;8.716;2022-09-12T03:19:32;23.98;;;18.73;;
24567;SDS011;12731;52.182;8.716;2022-09-12T03:22:18;23.98;;;19.35;;
24567;SDS011;12731;52.182;8.716;2022-09-12T03:27:48;26.20;;;20.75;;
24567;SDS011;12731;52.182;8.716;2022-09-12T03:30:19;24.17;;;20.02;;
24567;SDS011;12731;52.182;8.716;2022-09-12T03:32:47;25.15;;;20.52;;
24567;SDS011;12731;52.182;8.716;2022-09-12T03:35:15;24.17;;;19.58;;
24567;SDS011;12731;52.182;8.716;2022-09-12T03:37:48;22.35;;;19.73;;
24567;SDS011;12731;52.182;8.716;2022-09-12T03:40:15;26.35;;;19.90;;
24567;SDS011;12731;52.182;8.716;2022-09-12T03:42:42;23.15;;;20.05;;
24567;SDS011;12731;52.182;8.716;2022-09-12T03:45:08;25.33;;;20.55;;
24567;SDS011;12731;52.182;8.716;2022-09-12T03:47:35;24.40;;;20.08;;
24567;SDS011;12731;52.182;8.716;2022-09-12T03:50:02;24.23;;;19.73;;
24567;SDS011;12731;52.182;8.716;2022-09-12T03:52:28;24.20;;;18.83;;
24567;SDS011;12731;52.182;8.716;2022-09-12T03:54:55;22.52;;;18.67;;
24567;SDS011;12731;52.182;8.716;2022-09-12T03:57:21;26.42;;;19.15;;
24567;SDS011;12731;52.182;8.716;2022-09-12T03:59:48;23.60;;;18.52;;
24567;SDS011;12731;52.182;8.716;2022-09-12T04:02:18;24.90;;;18.38;;
24567;SDS011;12731;52.182;8.716;2022-09-12T04:04:44;21.17;;;18.48;;
24567;SDS011;12731;52.182;8.716;2022-09-12T04:07:14;22.80;;;17.88;;
24567;SDS011;12731;52.182;8.716;2022-09-12T04:09:41;20.83;;;17.77;;
24567;SDS011;12731;52.182;8.716;2022-09-12T04:12:08;21.25;;;17.00;;
24567;SDS011;12731;52.182;8.716;2022-09-12T04:14:34;21.52;;;17.70;;
24567;SDS011;12731;52.182;8.716;2022-09-12T04:17:00;23.30;;;18.85;;
24567;SDS011;12731;52.182;8.716;2022-09-12T04:19:27;22.88;;;17.55;;
24567;SDS011;12731;52.182;8.716;2022-09-12T04:21:54;21.85;;;17.75;;
24567;SDS011;12731;52.182;8.716;2022-09-12T04:24:20;21.17;;;17.92;;
24567;SDS011;12731;52.182;8.716;2022-09-12T04:26:46;20.17;;;16.83;;
24567;SDS011;12731;52.182;8.716;2022-09-12T04:29:13;22.35;;;17.17;;
24567;SDS011;12731;52.182;8.716;2022-09-12T04:31:40;20.10;;;17.25;;
24567;SDS011;12731;52.182;8.716;2022-09-12T04:34:07;22.13;;;17.13;;
24567;SDS011;12731;52.182;8.716;2022-09-12T04:36:34;19.48;;;15.43;;
24567;SDS011;12731;52.182;8.716;2022-09-12T04:39:01;17.55;;;15.18;;
24567;SDS011;12731;52.182;8.716;2022-09-12T04:41:29;19.17;;;14.68;;
24567;SDS011;12731;52.182;8.716;2022-09-12T04:43:58;18.40;;;14.52;;
24567;SDS011;12731;52.182;8.716;2022-09-12T04:46:30;18.13;;;14.52;;
24567;SDS011;12731;52.182;8.716;2022-09-12T04:48:58;16.55;;;14.75;;
24567;SDS011;12731;52.182;8.716;2022-09-12T04:51:31;17.35;;;14.05;;
24567;SDS011;12731;52.182;8.716;2022-09-12T04:54:00;17.33;;;14.10;;
24567;SDS011;12731;52.182;8.716;2022-09-12T04:56:32;15.80;;;13.50;;
24567;SDS011;12731;52.182;8.716;2022-09-12T04:59:03;17.30;;;14.35;;
24567;SDS011;12731;52.182;8.716;2022-09-12T05:01:29;20.13;;;15.35;;
24567;SDS011;12731;52.182;8.716;2022-09-12T05:03:56;17.52;;;14.18;;
24567;SDS011;12731;52.182;8.716;2022-09-12T05:06:26;17.50;;;14.32;;
24567;SDS011;12731;52.182;8.716;2022-09-12T05:08:54;16.02;;;13.77;;
24567;SDS011;12731;52.182;8.716;2022-09-12T05:11:22;14.32;;;12.93;;
24567;SDS011;12731;52.182;8.716;2022-09-12T05:14:11;14.68;;;13.18;;
24567;SDS011;12731;52.182;8.716;2022-09-12T05:16:38;16.38;;;13.15;;
24567;SDS011;12731;52.182;8.716;2022-09-12T05:19:04;16.65;;;12.95;;
24567;SDS011;12731;52.182;8.716;2022-09-12T05:21:31;16.33;;;14.20;;
24567;SDS011;12731;52.182;8.716;2022-09-12T05:23:57;17.00;;;14.15;;
24567;SDS011;12731;52.182;8.716;2022-09-12T05:26:27;16.70;;;13.88;;
24567;SDS011;12731;52.182;8.716;2022-09-12T05:28:53;15.25;;;13.75;;
24567;SDS011;12731;52.182;8.716;2022-09-12T05:31:21;15.63;;;13.88;;
24567;SDS011;12731;52.182;8.716;2022-09-12T05:33:49;14.48;;;12.98;;
24567;SDS011;12731;52.182;8.716;2022-09-12T05:36:18;17.48;;;13.23;;
24567;SDS011;12731;52.182;8.716;2022-09-12T05:38:46;15.48;;;13.43;;
24567;SDS011;12731;52.182;8.716;2022-09-12T05:41:14;17.10;;;13.18;;
24567;SDS011;12731;52.182;8.716;2022-09-12T05:43:51;18.92;;;14.15;;
24567;SDS011;12731;52.182;8.716;2022-09-12T05:46:21;14.85;;;13.27;;
24567;SDS011;12731;52.182;8.716;2022-09-12T05:48:50;17.02;;;13.90;;
24567;SDS011;12731;52.182;8.716;2022-09-12T05:51:22;16.60;;;14.43;;
24567;SDS011;12731;52.182;8.716;2022-09-12T05:53:55;17.98;;;14.88;;
24567;SDS011;12731;52.182;8.716;2022-09-12T05:56:32;21.17;;;16.02;;
24567;SDS011;12731;52.182;8.716;2022-09-12T05:59:03;20.70;;;16.52;;
24567;SDS011;12731;52.182;8.716;2022-09-12T06:01:31;21.23;;;16.00;;
24567;SDS011;12731;52.182;8.716;2022-09-12T06:03:59;20.45;;;16.48;;
24567;SDS011;12731;52.182;8.716;2022-09-12T06:06:27;17.65;;;15.43;;
24567;SDS011;12731;52.182;8.716;2022-09-12T06:08:55;21.15;;;16.08;;
24567;SDS011;12731;52.182;8.716;2022-09-12T06:11:24;21.60;;;15.80;;
24567;SDS011;12731;52.182;8.716;2022-09-12T06:13:51;16.50;;;14.65;;
24567;SDS011;12731;52.182;8.716;2022-09-12T06:16:19;19.92;;;16.75;;
24567;SDS011;12731;52.182;8.716;2022-09-12T06:18:48;22.70;;;16.35;;
24567;SDS011;12731;52.182;8.716;2022-09-12T06:21:19;15.55;;;13.85;;
24567;SDS011;12731;52.182;8.716;2022-09-12T06:23:47;14.70;;;12.63;;
24567;SDS011;12731;52.182;8.716;2022-09-12T06:26:14;19.52;;;15.25;;
24567;SDS011;12731;52.182;8.716;2022-09-12T06:28:43;16.17;;;14.57;;
24567;SDS011;12731;52.182;8.716;2022-09-12T06:31:14;17.33;;;14.43;;
24567;SDS011;12731;52.182;8.716;2022-09-12T06:36:13;16.17;;;14.38;;
24567;SDS011;12731;52.182;8.716;2022-09-12T06:39:11;16.23;;;13.18;;
24567;SDS011;12731;52.182;8.716;2022-09-12T06:41:39;16.55;;;14.40;;
24567;SDS011;12731;52.182;8.716;2022-09-12T06:44:11;14.48;;;12.75;;
24567;SDS011;12731;52.182;8.716;2022-09-12T06:46:39;14.77;;;12.35;;
24567;SDS011;12731;52.182;8.716;2022-09-12T06:49:05;14.82;;;12.23;;
24567;SDS011;12731;52.182;8.716;2022-09-12T06:51:33;13.40;;;12.07;;
24567;SDS011;12731;52.182;8.716;2022-09-12T06:54:01;13.20;;;11.80;;
24567;SDS011;12731;52.182;8.716;2022-09-12T06:56:28;13.27;;;11.98;;
24567;SDS011;12731;52.182;8.716;2022-09-12T06:58:55;14.32;;;12.77;;
24567;SDS011;12731;52.182;8.716;2022-09-12T07:01:26;14.60;;;13.10;;
24567;SDS011;12731;52.182;8.716;2022-09-12T07:03:55;14.10;;;12.70;;
24567;SDS011;12731;52.182;8.716;2022-09-12T07:06:25;13.73;;;12.27;;
24567;SDS011;12731;52.182;8.716;2022-09-12T07:09:00;13.80;;;12.07;;
24567;SDS011;12731;52.182;8.716;2022-09-12T07:11:31;13.68;;;12.23;;
24567;SDS011;12731;52.182;8.716;2022-09-12T07:14:00;14.07;;;12.57;;
24567;SDS011;12731;52.182;8.716;2022-09-12T07:16:27;14.57;;;12.98;;
24567;SDS011;12731;52.182;8.716;2022-09-12T07:18:55;13.45;;;12.05;;
24567;SDS011;12731;52.182;8.716;2022-09-12T07:21:25;13.27;;;11.98;;
24567;SDS011;12731;52.182;8.716;2022-09-12T07:23:52;14.25;;;12.30;;
24567;SDS011;12731;52.182;8.716;2022-09-12T07:26:20;13.70;;;11.95;;
24567;SDS011;12731;52.182;8.716;2022-09-12T07:28:49;15.05;;;11.68;;
24567;SDS011;12731;52.182;8.716;2022-09-12T07:31:17;13.15;;;11.85;;
24567;SDS011;12731;52.182;8.716;2022-09-12T07:33:44;15.23;;;12.07;;
24567;SDS011;12731;52.182;8.716;2022-09-12T07:36:13;13.10;;;11.57;;
24567;SDS011;12731;52.182;8.716;2022-09-12T07:38:40;13.38;;;12.07;;
24567;SDS011;12731;52.182;8.716;2022-09-12T07:41:15;16.63;;;14.60;;
24567;SDS011;12731;52.182;8.716;2022-09-12T07:43:43;16.70;;;13.90;;
24567;SDS011;12731;52.182;8.716;2022-09-12T07:46:10;16.30;;;14.00;;
24567;SDS011;12731;52.182;8.716;2022-09-12T07:48:37;16.15;;;14.45;;
24567;SDS011;12731;52.182;8.716;2022-09-12T07:51:05;14.70;;;13.15;;
24567;SDS011;12731;52.182;8.716;2022-09-12T07:53:33;14.10;;;12.65;;
24567;SDS011;12731;52.182;8.716;2022-09-12T07:56:02;13.63;;;12.23;;
24567;SDS011;12731;52.182;8.716;2022-09-12T07:58:31;14.57;;;12.50;;
24567;SDS011;12731;52.182;8.716;2022-09-12T08:01:05;14.05;;;12.60;;
24567;SDS011;12731;52.182;8.716;2022-09-12T08:03:36;13.63;;;12.30;;
24567;SDS011;12731;52.182;8.716;2022-09-12T08:06:03;15.18;;;12.65;;
24567;SDS011;12731;52.182;8.716;2022-09-12T08:08:33;14.43;;;12.32;;
24567;SDS011;12731;52.182;8.716;2022-09-12T08:11:00;14.30;;;12.88;;
24567;SDS011;12731;52.182;8.716;2022-09-12T08:13:31;13.85;;;12.43;;
24567;SDS011;12731;52.182;8.716;2022-09-12T08:15:59;15.25;;;13.65;;
24567;SDS011;12731;52.182;8.716;2022-09-12T08:18:26;15.48;;;13.65;;
24567;SDS011;12731;52.182;8.716;2022-09-12T08:20:57;14.52;;;13.13;;
24567;SDS011;12731;52.182;8.716;2022-09-12T08:23:25;14.32;;;12.93;;
24567;SDS011;12731;52.182;8.716;2022-09-12T08:25:56;14.88;;;13.40;;
24567;SDS011;12731;52.182;8.716;2022-09-12T08:28:32;15.75;;;13.77;;
24567;SDS011;12731;52.182;8.716;2022-09-12T08:31:06;14.75;;;13.15;;
24567;SDS011;12731;52.182;8.716;2022-09-12T08:33:33;13.35;;;11.95;;
24567;SDS011;12731;52.182;8.716;2022-09-12T08:43:37;15.73;;;12.23;;
24567;SDS011;12731;52.182;8.716;2022-09-12T08:46:17;13.15;;;11.82;;
24567;SDS011;12731;52.182;8.716;2022-09-12T08:48:46;13.02;;;10.35;;
24567;SDS011;12731;52.182;8.716;2022-09-12T08:51:14;12.70;;;11.50;;
24567;SDS011;12731;52.182;8.716;2022-09-12T08:53:42;13.20;;;11.65;;
24567;SDS011;12731;52.182;8.716;2022-09-12T08:56:12;13.35;;;11.95;;
24567;SDS011;12731;52.182;8.716;2022-09-12T08:58:40;13.07;;;11.75;;
24567;SDS011;12731;52.182;8.716;2022-09-12T09:01:23;13.18;;;11.80;;
24567;SDS011;12731;52.182;8.716;2022-09-12T09:07:05;12.55;;;11.02;;
24567;SDS011;12731;52.182;8.716;2022-09-12T09:14:41;11.30;;;10.20;;
24567;SDS011;12731;52.182;8.716;2022-09-12T09:17:18;11.38;;;9.82;;
24567;SDS011;12731;52.182;8.716;2022-09-12T09:19:52;12.52;;;9.70;;
24567;SDS011;12731;52.182;8.716;2022-09-12T09:31:14;12.45;;;9.30;;
24567;SDS011;12731;52.182;8.716;2022-09-12T09:33:41;8.90;;;8.10;;
24567;SDS011;12731;52.182;8.716;2022-09-12T09:36:54;8.02;;;6.53;;
24567;SDS011;12731;52.182;8.716;2022-09-12T09:41:57;5.93;;;3.70;;
24567;SDS011;12731;52.182;8.716;2022-09-12T09:44:32;4.28;;;3.80;;
24567;SDS011;12731;52.182;8.716;2022-09-12T09:46:59;5.97;;;4.38;;
24567;SDS011;12731;52.182;8.716;2022-09-12T09:49:26;6.72;;;4.22;;
24567;SDS011;12731;52.182;8.716;2022-09-12T09:51:56;8.23;;;3.75;;
24567;SDS011;12731;52.182;8.716;2022-09-12T09:54:39;5.32;;;3.67;;
24567;SDS011;12731;52.182;8.716;2022-09-12T10:03:03;5.43;;;3.63;;
24567;SDS011;12731;52.182;8.716;2022-09-12T10:05:44;3.63;;;3.33;;
24567;SDS011;12731;52.182;8.716;2022-09-12T10:08:26;4.30;;;2.88;;
24567;SDS011;12731;52.182;8.716;2022-09-12T10:11:04;3.83;;;3.40;;
24567;SDS011;12731;52.182;8.716;2022-09-12T10:16:19;3.67;;;3.38;;
24567;SDS011;12731;52.182;8.716;2022-09-12T10:18:48;4.50;;;3.85;;
24567;SDS011;12731;52.182;8.716;2022-09-12T10:21:20;5.60;;;3.60;;
24567;SDS011;12731;52.182;8.716;2022-09-12T10:23:52;9.43;;;3.85;;
24567;SDS011;12731;52.182;8.716;2022-09-12T10:26:26;3.97;;;3.40;;
24567;SDS011;12731;52.182;8.716;2022-09-12T10:28:58;5.05;;;3.47;;
24567;SDS011;12731;52.182;8.716;2022-09-12T10:31:41;4.90;;;3.80;;
24567;SDS011;12731;52.182;8.716;2022-09-12T10:39:30;4.47;;;3.78;;
24567;SDS011;12731;52.182;8.716;2022-09-12T10:41:57;4.82;;;3.58;;
24567;SDS011;12731;52.182;8.716;2022-09-12T10:44:29;5.43;;;4.45;;
24567;SDS011;12731;52.182;8.716;2022-09-12T10:46:56;5.88;;;4.25;;
24567;SDS011;12731;52.182;8.716;2022-09-12T10:49:28;4.30;;;3.88;;
24567;SDS011;12731;52.182;8.716;2022-09-12T10:51:55;4.22;;;3.80;;
24567;SDS011;12731;52.182;8.716;2022-09-12T10:54:25;4.70;;;3.85;;
24567;SDS011;12731;52.182;8.716;2022-09-12T11:07:50;5.43;;;3.72;;
24567;SDS011;12731;52.182;8.716;2022-09-12T11:13:07;5.35;;;4.53;;
24567;SDS011;12731;52.182;8.716;2022-09-12T11:19:01;7.18;;;4.68;;
24567;SDS011;12731;52.182;8.716;2022-09-12T11:27:21;8.43;;;5.53;;
24567;SDS011;12731;52.182;8.716;2022-09-12T11:30:02;9.15;;;4.90;;
24567;SDS011;12731;52.182;8.716;2022-09-12T11:45:58;7.15;;;5.18;;
24567;SDS011;12731;52.182;8.716;2022-09-12T11:50:59;5.05;;;4.47;;
24567;SDS011;12731;52.182;8.716;2022-09-12T11:53:29;5.40;;;4.00;;
24567;SDS011;12731;52.182;8.716;2022-09-12T11:56:03;6.70;;;5.20;;
24567;SDS011;12731;52.182;8.716;2022-09-12T11:58:34;6.00;;;4.82;;
24567;SDS011;12731;52.182;8.716;2022-09-12T12:01:25;5.72;;;4.72;;
24567;SDS011;12731;52.182;8.716;2022-09-12T12:03:51;7.97;;;5.00;;
24567;SDS011;12731;52.182;8.716;2022-09-12T12:06:21;7.70;;;5.25;;
24567;SDS011;12731;52.182;8.716;2022-09-12T12:08:50;7.00;;;4.57;;
24567;SDS011;12731;52.182;8.716;2022-09-12T12:11:25;5.60;;;4.68;;
24567;SDS011;12731;52.182;8.716;2022-09-12T12:13:56;5.72;;;4.57;;
24567;SDS011;12731;52.182;8.716;2022-09-12T12:16:29;6.57;;;4.80;;
24567;SDS011;12731;52.182;8.716;2022-09-12T12:19:01;5.90;;;4.22;;
24567;SDS011;12731;52.182;8.716;2022-09-12T12:21:50;5.97;;;4.65;;
24567;SDS011;12731;52.182;8.716;2022-09-12T12:24:20;5.63;;;4.65;;
24567;SDS011;12731;52.182;8.716;2022-09-12T12:26:58;6.45;;;4.53;;
24567;SDS011;12731;52.182;8.716;2022-09-12T12:34:32;4.80;;;4.30;;
24567;SDS011;12731;52.182;8.716;2022-09-12T12:44:58;4.80;;;4.30;;
24567;SDS011;12731;52.182;8.716;2022-09-12T12:50:11;4.72;;;3.30;;
24567;SDS011;12731;52.182;8.716;2022-09-12T12:52:47;4.35;;;3.78;;
24567;SDS011;12731;52.182;8.716;2022-09-12T12:58:07;5.80;;;3.78;;
24567;SDS011;12731;52.182;8.716;2022-09-12T13:00:48;5.85;;;4.10;;
24567;SDS011;12731;52.182;8.716;2022-09-12T13:03:30;4.38;;;3.47;;
24567;SDS011;12731;52.182;8.716;2022-09-12T13:06:01;5.00;;;3.60;;
24567;SDS011;12731;52.182;8.716;2022-09-12T13:08:29;4.53;;;3.03;;
24567;SDS011;12731;52.182;8.716;2022-09-12T13:11:06;3.47;;;2.90;;
24567;SDS011;12731;52.182;8.716;2022-09-12T13:13:50;4.25;;;3.20;;
24567;SDS011;12731;52.182;8.716;2022-09-12T13:16:32;3.97;;;2.90;;
24567;SDS011;12731;52.182;8.716;2022-09-12T13:19:04;5.00;;;2.90;;
24567;SDS011;12731;52.182;8.716;2022-09-12T13:21:32;3.53;;;2.70;;
24567;SDS011;12731;52.182;8.716;2022-09-12T13:24:11;3.22;;;2.92;;
24567;SDS011;12731;52.182;8.716;2022-09-12T13:26:41;4.18;;;3.08;;
24567;SDS011;12731;52.182;8.716;2022-09-12T13:31:36;4.22;;;2.63;;
24567;SDS011;12731;52.182;8.716;2022-09-12T13:34:03;3.92;;;2.90;;
24567;SDS011;12731;52.182;8.716;2022-09-12T13:36:41;2.60;;;2.33;;
24567;SDS011;12731;52.182;8.716;2022-09-12T13:44:30;6.88;;;2.63;;
24567;SDS011;12731;52.182;8.716;2022-09-12T13:46:58;6.40;;;2.90;;
24567;SDS011;12731;52.182;8.716;2022-09-12T13:52:18;5.10;;;2.92;;
24567;SDS011;12731;52.182;8.716;2022-09-12T13:54:47;4.30;;;3.05;;
24567;SDS011;12731;52.182;8.716;2022-09-12T13:57:26;3.42;;;2.50;;
24567;SDS011;12731;52.182;8.716;2022-09-12T14:05:22;5.03;;;2.95;;
24567;SDS011;12731;52.182;8.716;2022-09-12T14:07:56;5.60;;;2.90;;
24567;SDS011;12731;52.182;8.716;2022-09-12T14:10:25;5.10;;;2.90;;
24567;SDS011;12731;52.182;8.716;2022-09-12T14:12:54;3.75;;;2.95;;
24567;SDS011;12731;52.182;8.716;2022-09-12T14:15:23;3.67;;;3.10;;
24567;SDS011;12731;52.182;8.716;2022-09-12T14:17:54;4.35;;;3.30;;
24567;SDS011;12731;52.182;8.716;2022-09-12T14:20:30;4.50;;;3.38;;
24567;SDS011;12731;52.182;8.716;2022-09-12T14:22:58;3.53;;;2.90;;
24567;SDS011;12731;52.182;8.716;2022-09-12T14:25:28;3.70;;;2.90;;
24567;SDS011;12731;52.182;8.716;2022-09-12T14:28:02;4.47;;;3.15;;
24567;SDS011;12731;52.182;8.716;2022-09-12T14:30:33;3.35;;;3.05;;
24567;SDS011;12731;52.182;8.716;2022-09-12T14:35:37;4.30;;;3.30;;
24567;SDS011;12731;52.182;8.716;2022-09-12T14:40:42;3.88;;;2.90;;
24567;SDS011;12731;52.182;8.716;2022-09-12T14:43:16;3.63;;;2.80;;
24567;SDS011;12731;52.182;8.716;2022-09-12T14:45:43;7.05;;;3.15;;
24567;SDS011;12731;52.182;8.716;2022-09-12T14:48:18;4.30;;;2.92;;
24567;SDS011;12731;52.182;8.716;2022-09-12T14:50:47;4.55;;;3.70;;
24567;SDS011;12731;52.182;8.716;2022-09-12T14:55:42;3.22;;;2.70;;
24567;SDS011;12731;52.182;8.716;2022-09-12T14:58:13;3.70;;;3.03;;
24567;SDS011;12731;52.182;8.716;2022-09-12T15:01:02;4.35;;;3.08;;
24567;SDS011;12731;52.182;8.716;2022-09-12T15:03:50;3.65;;;3.10;;
24567;SDS011;12731;52.182;8.716;2022-09-12T15:06:38;4.38;;;3.25;;
24567;SDS011;12731;52.182;8.716;2022-09-12T15:09:06;4.82;;;3.60;;
24567;SDS011;12731;52.182;8.716;2022-09-12T15:11:35;4.43;;;3.13;;
24567;SDS011;12731;52.182;8.716;2022-09-12T15:14:05;3.55;;;3.25;;
24567;SDS011;12731;52.182;8.716;2022-09-12T15:16:40;3.30;;;3.00;;
24567;SDS011;12731;52.182;8.716;2022-09-12T15:19:06;3.75;;;3.40;;
24567;SDS011;12731;52.182;8.716;2022-09-12T15:21:33;3.78;;;3.20;;
24567;SDS011;12731;52.182;8.716;2022-09-12T15:23:59;3.63;;;3.20;;
24567;SDS011;12731;52.182;8.716;2022-09-12T15:26:26;4.75;;;3.30;;
24567;SDS011;12731;52.182;8.716;2022-09-12T15:28:55;4.32;;;3.08;;
24567;SDS011;12731;52.182;8.716;2022-09-12T15:31:29;3.58;;;2.92;;
24567;SDS011;12731;52.182;8.716;2022-09-12T15:33:57;3.70;;;3.33;;
24567;SDS011;12731;52.182;8.716;2022-09-12T15:36:25;3.97;;;3.30;;
24567;SDS011;12731;52.182;8.716;2022-09-12T15:38:51;5.05;;;3.03;;
24567;SDS011;12731;52.182;8.716;2022-09-12T15:41:31;3.50;;;3.20;;
24567;SDS011;12731;52.182;8.716;2022-09-12T15:44:00;4.03;;;3.10;;
24567;SDS011;12731;52.182;8.716;2022-09-12T15:46:29;4.40;;;3.30;;
24567;SDS011;12731;52.182;8.716;2022-09-12T15:48:56;3.78;;;3.47;;
24567;SDS011;12731;52.182;8.716;2022-09-12T15:51:22;3.70;;;3.40;;
24567;SDS011;12731;52.182;8.716;2022-09-12T15:53:49;3.67;;;3.35;;
24567;SDS011;12731;52.182;8.716;2022-09-12T15:56:16;3.50;;;3.20;;
24567;SDS011;12731;52.182;8.716;2022-09-12T15:58:44;5.47;;;3.40;;
24567;SDS011;12731;52.182;8.716;2022-09-12T16:01:24;3.67;;;3.30;;
24567;SDS011;12731;52.182;8.716;2022-09-12T16:03:50;4.88;;;3.60;;
24567;SDS011;12731;52.182;8.716;2022-09-12T16:06:17;4.90;;;3.90;;
24567;SDS011;12731;52.182;8.716;2022-09-12T16:08:43;4.05;;;3.55;;
24567;SDS011;12731;52.182;8.716;2022-09-12T16:11:11;4.65;;;3.85;;
24567;SDS011;12731;52.182;8.716;2022-09-12T16:13:43;3.92;;;3.50;;
24567;SDS011;12731;52.182;8.716;2022-09-12T16:16:09;4.45;;;3.85;;
24567;SDS011;12731;52.182;8.716;2022-09-12T16:18:38;4.72;;;3.80;;
24567;SDS011;12731;52.182;8.716;2022-09-12T16:21:05;3.72;;;3.40;;
24567;SDS011;12731;52.182;8.716;2022-09-12T16:23:36;3.60;;;3.30;;
24567;SDS011;12731;52.182;8.716;2022-09-12T16:26:04;3.80;;;3.35;;
24567;SDS011;12731;52.182;8.716;2022-09-12T16:28:31;4.57;;;3.90;;
24567;SDS011;12731;52.182;8.716;2022-09-12T16:30:59;5.43;;;3.50;;
24567;SDS011;12731;52.182;8.716;2022-09-12T16:33:27;4.85;;;3.83;;
24567;SDS011;12731;52.182;8.716;2022-09-12T16:36:10;5.07;;;3.70;;
24567;SDS011;12731;52.182;8.716;2022-09-12T16:38:45;5.32;;;4.25;;
24567;SDS011;12731;52.182;8.716;2022-09-12T16:41:16;3.92;;;3.58;;
24567;SDS011;12731;52.182;8.716;2022-09-12T16:43:44;5.47;;;3.97;;
24567;SDS011;12731;52.182;8.716;2022-09-12T16:46:11;4.47;;;3.83;;
24567;SDS011;12731;52.182;8.716;2022-09-12T16:48:40;4.68;;;4.03;;
24567;SDS011;12731;52.182;8.716;2022-09-12T16:51:18;5.22;;;4.18;;
24567;SDS011;12731;52.182;8.716;2022-09-12T16:53:46;4.97;;;3.72;;
24567;SDS011;12731;52.182;8.716;2022-09-12T16:56:13;3.47;;;3.17;;
24567;SDS011;12731;52.182;8.716;2022-09-12T16:58:40;4.28;;;3.88;;
24567;SDS011;12731;52.182;8.716;2022-09-12T17:01:08;6.00;;;3.70;;
24567;SDS011;12731;52.182;8.716;2022-09-12T17:03:36;4.95;;;3.90;;
24567;SDS011;12731;52.182;8.716;2022-09-12T17:06:04;4.25;;;3.50;;
24567;SDS011;12731;52.182;8.716;2022-09-12T17:08:36;6.05;;;3.60;;
24567;SDS011;12731;52.182;8.716;2022-09-12T17:11:05;3.63;;;3.30;;
24567;SDS011;12731;52.182;8.716;2022-09-12T17:13:33;4.00;;;3.60;;
24567;SDS011;12731;52.182;8.716;2022-09-12T17:16:20;6.70;;;4.07;;
24567;SDS011;12731;52.182;8.716;2022-09-12T17:18:46;3.85;;;3.55;;
24567;SDS011;12731;52.182;8.716;2022-09-12T17:21:13;4.05;;;3.65;;
24567;SDS011;12731;52.182;8.716;2022-09-12T17:23:39;3.85;;;3.55;;
24567;SDS011;12731;52.182;8.716;2022-09-12T17:26:06;3.90;;;3.22;;
24567;SDS011;12731;52.182;8.716;2022-09-12T17:28:35;5.32;;;3.72;;
24567;SDS011;12731;52.182;8.716;2022-09-12T17:31:03;3.75;;;3.42;;